createdAt,value
2022-09-20T00:00:48.483Z,67.30
2022-09-20T00:03:17.361Z,67.30
2022-09-20T00:05:46.155Z,67.40
2022-09-20T00:08:16.106Z,67.90
2022-09-20T00:10:43.575Z,67.30
2022-09-20T00:13:12.754Z,67.40
2022-09-20T00:15:44.635Z,67.30
2022-09-20T00:18:12.525Z,67.30
2022-09-20T00:20:49.534Z,67.30
2022-09-20T00:23:17.085Z,67.30
2022-09-20T00:25:44.314Z,67.30
2022-09-20T00:28:11.451Z,67.30
2022-09-20T00:30:38.876Z,67.30
2022-09-20T00:33:05.752Z,67.40
2022-09-20T00:35:32.996Z,67.40
2022-09-20T00:37:59.705Z,67.40
2022-09-20T00:40:30.270Z,67.40
2022-09-20T00:42:57.060Z,67.30
2022-09-20T00:45:26.562Z,67.40
2022-09-20T00:47:59.132Z,67.40
2022-09-20T00:50:45.650Z,67.30
2022-09-20T00:53:34.061Z,67.30
2022-09-20T00:56:20.456Z,67.40
2022-09-20T00:59:01.615Z,67.30
2022-09-20T01:01:28.569Z,67.30
2022-09-20T01:03:55.540Z,67.40
2022-09-20T01:06:22.299Z,67.40
2022-09-20T01:08:53.648Z,67.40
2022-09-20T01:11:20.438Z,67.40
2022-09-20T01:13:47.145Z,67.40
2022-09-20T01:16:16.042Z,67.40
2022-09-20T01:18:44.790Z,67.40
2022-09-20T01:21:12.271Z,67.40
2022-09-20T01:23:41.963Z,67.40
2022-09-20T01:26:14.232Z,67.40
2022-09-20T01:28:43.906Z,67.30
2022-09-20T01:31:29.687Z,67.40
2022-09-20T01:34:11.360Z,67.40
2022-09-20T01:36:59.599Z,67.30
2022-09-20T01:39:38.230Z,67.30
2022-09-20T01:42:10.598Z,67.30
2022-09-20T01:44:40.291Z,67.40
2022-09-20T01:47:52.017Z,67.30
2022-09-20T01:50:35.328Z,67.30
2022-09-20T01:53:04.781Z,67.30
2022-09-20T01:55:59.582Z,67.30
2022-09-20T01:58:41.235Z,67.30
2022-09-20T02:01:38.834Z,67.30
2022-09-20T02:04:35.098Z,67.30
2022-09-20T02:07:26.632Z,67.30
2022-09-20T02:10:14.653Z,67.30
2022-09-20T02:13:08.285Z,67.30
2022-09-20T02:15:46.728Z,67.30
2022-09-20T02:18:38.517Z,67.40
2022-09-20T02:21:29.121Z,67.30
2022-09-20T02:24:10.969Z,67.30
2022-09-20T02:26:50.904Z,67.30
2022-09-20T02:29:20.592Z,67.30
2022-09-20T02:32:13.566Z,67.30
2022-09-20T02:34:43.415Z,67.30
2022-09-20T02:37:28.232Z,67.40
2022-09-20T02:40:10.049Z,67.30
2022-09-20T02:42:51.591Z,67.30
2022-09-20T02:45:36.467Z,67.50
2022-09-20T02:48:06.659Z,67.30
2022-09-20T02:50:47.215Z,67.40
2022-09-20T02:53:23.112Z,67.30
2022-09-20T02:56:17.490Z,67.40
2022-09-20T02:59:05.615Z,67.30
2022-09-20T03:01:54.656Z,67.30
2022-09-20T03:04:37.332Z,67.40
2022-09-20T03:07:10.256Z,67.30
2022-09-20T03:09:55.603Z,67.40
2022-09-20T03:12:47.200Z,67.30
2022-09-20T03:15:26.862Z,67.30
2022-09-20T03:18:06.272Z,67.40
2022-09-20T03:20:51.494Z,67.40
2022-09-20T03:23:55.533Z,67.40
2022-09-20T03:26:44.042Z,67.30
2022-09-20T03:29:28.789Z,67.40
2022-09-20T03:32:13.820Z,67.40
2022-09-20T03:35:08.167Z,67.40
2022-09-20T03:38:01.781Z,67.40
2022-09-20T03:40:59.355Z,67.40
2022-09-20T03:43:33.270Z,67.40
2022-09-20T03:46:22.522Z,67.50
2022-09-20T03:48:58.260Z,67.60
2022-09-20T03:51:46.349Z,67.40
2022-09-20T03:54:53.915Z,67.50
2022-09-20T03:57:29.544Z,67.40
2022-09-20T04:00:04.044Z,67.60
2022-09-20T04:02:50.045Z,67.60
2022-09-20T04:05:27.094Z,67.50
2022-09-20T04:07:56.864Z,67.70
2022-09-20T04:10:44.522Z,67.70
2022-09-20T04:13:30.158Z,67.50
2022-09-20T04:16:15.721Z,67.80
2022-09-20T04:18:49.078Z,67.60
2022-09-20T04:21:46.448Z,67.60
2022-09-20T04:24:28.205Z,67.60
2022-09-20T04:27:15.266Z,67.60
2022-09-20T04:30:04.200Z,67.70
2022-09-20T04:33:11.958Z,67.80
2022-09-20T04:36:24.597Z,67.80
2022-09-20T04:39:16.454Z,68.00
2022-09-20T04:42:05.341Z,68.00
2022-09-20T04:45:07.920Z,68.00
2022-09-20T04:47:56.487Z,68.00
2022-09-20T04:50:52.110Z,67.90
2022-09-20T04:53:43.250Z,67.90
2022-09-20T04:56:51.150Z,68.00
2022-09-20T04:59:46.165Z,68.00
2022-09-20T05:02:30.731Z,67.90
2022-09-20T05:05:41.695Z,67.80
2022-09-20T05:08:32.410Z,67.90
2022-09-20T05:11:06.534Z,67.80
2022-09-20T05:13:48.323Z,67.90
2022-09-20T05:16:48.586Z,67.90
2022-09-20T05:19:31.856Z,67.90
2022-09-20T05:22:10.553Z,68.00
2022-09-20T05:24:49.541Z,67.90
2022-09-20T05:27:19.687Z,67.90
2022-09-20T05:30:23.003Z,68.00
2022-09-20T05:32:52.817Z,67.90
2022-09-20T05:35:43.154Z,68.10
2022-09-20T05:38:24.641Z,67.80
2022-09-20T05:41:04.789Z,67.80
2022-09-20T05:43:53.252Z,67.80
2022-09-20T05:46:38.726Z,68.50
2022-09-20T05:49:34.519Z,68.10
2022-09-20T05:52:34.701Z,67.70
2022-09-20T05:55:23.492Z,67.70
2022-09-20T05:58:28.252Z,67.90
2022-09-20T06:01:09.599Z,67.80
2022-09-20T06:03:54.458Z,67.60
2022-09-20T06:06:56.374Z,67.70
2022-09-20T06:09:29.898Z,68.10
2022-09-20T06:12:17.856Z,66.50
2022-09-20T06:15:11.707Z,65.00
2022-09-20T06:17:49.466Z,66.10
2022-09-20T06:20:21.999Z,66.90
2022-09-20T06:22:50.311Z,68.00
2022-09-20T06:25:42.861Z,70.30
2022-09-20T06:28:19.367Z,70.50
2022-09-20T06:30:51.728Z,71.00
2022-09-20T06:33:24.762Z,72.30
2022-09-20T06:36:35.091Z,73.20
2022-09-20T06:39:25.693Z,72.10
2022-09-20T06:41:52.803Z,72.40
2022-09-20T06:44:19.527Z,73.20
2022-09-20T06:46:46.287Z,74.70
2022-09-20T06:49:13.021Z,74.90
2022-09-20T06:51:40.108Z,76.50
2022-09-20T06:54:11.292Z,76.00
2022-09-20T06:56:38.403Z,75.50
2022-09-20T06:59:10.313Z,74.20
2022-09-20T07:01:37.555Z,73.50
2022-09-20T07:04:06.110Z,73.50
2022-09-20T07:06:33.630Z,72.40
2022-09-20T07:09:00.380Z,72.20
2022-09-20T07:11:27.845Z,72.00
2022-09-20T07:13:58.049Z,71.60
2022-09-20T07:16:26.437Z,71.30
2022-09-20T07:18:53.604Z,71.10
2022-09-20T07:21:21.654Z,70.90
2022-09-20T07:23:51.406Z,71.10
2022-09-20T07:26:30.188Z,70.60
2022-09-20T07:28:57.915Z,70.60
2022-09-20T07:31:26.525Z,70.60
2022-09-20T07:33:53.430Z,69.80
2022-09-20T07:36:20.528Z,70.20
2022-09-20T07:38:50.367Z,70.10
2022-09-20T07:41:22.885Z,70.10
2022-09-20T07:43:50.819Z,70.00
2022-09-20T07:46:19.240Z,69.60
2022-09-20T07:48:45.985Z,69.60
2022-09-20T07:51:13.754Z,69.90
2022-09-20T07:53:41.104Z,69.60
2022-09-20T07:56:15.158Z,69.60
2022-09-20T07:58:43.074Z,68.70
2022-09-20T08:01:12.584Z,69.60
2022-09-20T08:03:39.616Z,67.30
2022-09-20T08:06:09.204Z,67.40
2022-09-20T08:08:37.927Z,67.50
2022-09-20T08:11:17.061Z,67.50
2022-09-20T08:16:39.267Z,67.60
2022-09-20T08:19:06.009Z,67.50
2022-09-20T08:21:35.875Z,67.60
2022-09-20T08:24:04.009Z,67.50
2022-09-20T08:26:31.679Z,67.60
2022-09-20T08:29:00.216Z,67.90
2022-09-20T08:31:36.888Z,67.90
2022-09-20T08:34:06.532Z,67.80
2022-09-20T08:36:36.828Z,67.70
2022-09-20T08:41:56.889Z,67.40
2022-09-20T08:44:29.680Z,67.70
2022-09-20T08:47:00.220Z,67.50
2022-09-20T08:49:29.117Z,67.40
2022-09-20T08:51:58.232Z,67.70
2022-09-20T08:54:32.307Z,67.70
2022-09-20T08:57:10.817Z,67.60
2022-09-20T08:59:37.604Z,67.70
2022-09-20T09:02:16.420Z,67.80
2022-09-20T09:04:45.412Z,67.40
2022-09-20T09:07:19.643Z,67.60
2022-09-20T09:09:47.719Z,67.70
2022-09-20T09:12:30.682Z,67.40
2022-09-20T09:15:05.909Z,66.70
2022-09-20T09:17:32.599Z,66.70
2022-09-20T09:20:15.292Z,67.50
2022-09-20T09:22:46.231Z,67.70
2022-09-20T09:25:18.450Z,68.30
2022-09-20T09:28:00.789Z,67.80
2022-09-20T09:30:27.527Z,67.90
2022-09-20T09:33:20.017Z,68.10
2022-09-20T09:35:57.154Z,68.10
2022-09-20T09:38:29.755Z,68.10
2022-09-20T09:40:59.634Z,67.90
2022-09-20T09:43:30.072Z,68.10
2022-09-20T09:46:21.493Z,67.90
2022-09-20T09:49:06.734Z,67.80
2022-09-20T09:51:36.733Z,68.00
2022-09-20T09:54:05.189Z,67.90
2022-09-20T09:56:58.072Z,67.40
2022-09-20T10:00:03.130Z,67.30
2022-09-20T10:03:26.081Z,67.30
2022-09-20T10:06:23.036Z,66.90
2022-09-20T10:09:04.876Z,67.60
2022-09-20T10:12:02.504Z,67.60
2022-09-20T10:14:47.206Z,67.80
2022-09-20T10:17:52.422Z,67.50
2022-09-20T10:20:21.819Z,67.60
2022-09-20T10:23:26.804Z,67.50
2022-09-20T10:25:53.787Z,67.60
2022-09-20T10:28:28.682Z,67.50
2022-09-20T10:31:03.667Z,67.50
2022-09-20T10:34:00.240Z,67.20
2022-09-20T10:36:47.274Z,67.30
2022-09-20T10:39:25.329Z,67.50
2022-09-20T10:42:45.784Z,67.10
2022-09-20T10:45:50.865Z,66.90
2022-09-20T10:48:31.030Z,66.90
2022-09-20T10:51:06.836Z,66.70
2022-09-20T10:53:52.056Z,66.30
2022-09-20T10:56:33.574Z,66.30
2022-09-20T10:59:30.858Z,66.20
2022-09-20T11:02:13.814Z,66.10
2022-09-20T11:05:02.019Z,66.30
2022-09-20T11:07:34.444Z,66.30
2022-09-20T11:10:22.667Z,66.30
2022-09-20T11:13:01.098Z,66.20
2022-09-20T11:15:39.614Z,65.90
2022-09-20T11:18:13.233Z,66.00
2022-09-20T11:20:47.604Z,65.80
2022-09-20T11:23:21.442Z,66.00
2022-09-20T11:26:04.615Z,65.50
2022-09-20T11:28:37.473Z,65.50
2022-09-20T11:31:26.778Z,65.70
2022-09-20T11:34:12.875Z,65.20
2022-09-20T11:36:44.442Z,65.50
2022-09-20T11:39:39.563Z,65.40
2022-09-20T11:42:12.629Z,65.40
2022-09-20T11:44:41.215Z,65.40
2022-09-20T11:47:36.622Z,65.30
2022-09-20T11:50:35.363Z,65.10
2022-09-20T11:53:32.161Z,64.90
2022-09-20T11:56:11.122Z,65.00
2022-09-20T11:59:05.793Z,64.90
2022-09-20T12:01:42.657Z,64.90
2022-09-20T12:04:38.618Z,64.70
2022-09-20T12:07:18.096Z,64.60
2022-09-20T12:09:59.096Z,64.40
2022-09-20T12:12:34.925Z,64.20
2022-09-20T12:15:06.029Z,63.80
2022-09-20T12:17:48.100Z,63.10
2022-09-20T12:20:32.803Z,63.20
2022-09-20T12:23:37.075Z,63.00
2022-09-20T12:26:32.623Z,62.70
2022-09-20T12:29:20.527Z,62.60
2022-09-20T12:31:52.425Z,62.60
2022-09-20T12:34:19.094Z,62.30
2022-09-20T12:37:10.249Z,62.50
2022-09-20T12:39:39.411Z,62.60
2022-09-20T12:42:28.224Z,62.40
2022-09-20T12:45:26.416Z,62.30
2022-09-20T12:47:55.828Z,62.10
2022-09-20T12:50:42.098Z,61.70
2022-09-20T12:53:16.657Z,61.20
2022-09-20T12:56:02.003Z,61.20
2022-09-20T12:58:39.690Z,61.20
2022-09-20T13:01:08.520Z,61.10
2022-09-20T13:03:43.319Z,61.30
2022-09-20T13:06:11.951Z,61.40
2022-09-20T13:08:49.437Z,61.40
2022-09-20T13:11:18.671Z,61.40
2022-09-20T13:13:55.768Z,61.40
2022-09-20T13:16:24.366Z,61.40
2022-09-20T13:19:28.682Z,61.20
2022-09-20T13:22:04.501Z,60.90
2022-09-20T13:24:37.487Z,60.60
2022-09-20T13:27:34.839Z,60.70
2022-09-20T13:30:22.579Z,60.80
2022-09-20T13:32:51.377Z,60.80
2022-09-20T13:35:21.481Z,60.00
2022-09-20T13:37:57.173Z,59.70
2022-09-20T13:40:40.335Z,59.80
2022-09-20T13:43:43.711Z,59.70
2022-09-20T13:46:12.178Z,59.60
2022-09-20T13:48:39.256Z,59.40
2022-09-20T13:51:19.560Z,59.60
2022-09-20T13:53:49.566Z,59.80
2022-09-20T13:56:37.928Z,60.10
2022-09-20T13:59:18.473Z,60.20
2022-09-20T14:01:51.575Z,60.50
2022-09-20T14:04:22.096Z,60.70
2022-09-20T14:06:50.520Z,60.70
2022-09-20T14:09:39.197Z,60.70
2022-09-20T14:12:07.082Z,60.50
2022-09-20T14:14:34.911Z,60.40
2022-09-20T14:17:06.061Z,60.30
2022-09-20T14:19:38.833Z,60.30
2022-09-20T14:22:06.963Z,60.50
2022-09-20T14:24:37.233Z,59.80
2022-09-20T14:27:22.479Z,59.60
2022-09-20T14:29:53.624Z,58.70
2022-09-20T14:32:20.664Z,58.80
2022-09-20T14:34:56.523Z,56.80
2022-09-20T14:37:28.097Z,57.20
2022-09-20T14:39:57.572Z,57.30
2022-09-20T14:42:30.382Z,57.90
2022-09-20T14:44:57.927Z,57.90
2022-09-20T14:47:38.724Z,57.90
2022-09-20T14:50:34.585Z,58.30
2022-09-20T14:53:10.853Z,57.80
2022-09-20T14:55:39.114Z,58.10
2022-09-20T14:58:15.210Z,58.30
2022-09-20T15:00:57.834Z,59.30
2022-09-20T15:03:31.042Z,59.30
2022-09-20T15:05:58.169Z,59.50
2022-09-20T15:08:25.575Z,59.90
2022-09-20T15:10:52.553Z,60.10
2022-09-20T15:13:19.366Z,60.20
2022-09-20T15:15:50.764Z,60.40
2022-09-20T15:18:22.363Z,60.60
2022-09-20T15:20:53.315Z,60.70
2022-09-20T15:23:20.422Z,60.90
2022-09-20T15:25:51.409Z,61.00
2022-09-20T15:28:18.880Z,61.10
2022-09-20T15:30:47.313Z,61.20
2022-09-20T15:33:14.758Z,61.40
2022-09-20T15:35:43.171Z,61.40
2022-09-20T15:38:11.846Z,62.10
2022-09-20T15:40:43.066Z,61.70
2022-09-20T15:43:14.648Z,61.80
2022-09-20T15:45:52.292Z,61.90
2022-09-20T15:48:21.402Z,61.90
2022-09-20T15:51:04.170Z,62.10
2022-09-20T15:53:33.424Z,62.10
2022-09-20T15:56:02.573Z,62.20
2022-09-20T15:58:36.298Z,62.30
2022-09-20T16:01:05.662Z,62.30
2022-09-20T16:03:32.989Z,62.40
2022-09-20T16:06:04.274Z,62.50
2022-09-20T16:08:33.530Z,62.50
2022-09-20T16:11:00.666Z,62.50
2022-09-20T16:13:27.865Z,62.60
2022-09-20T16:15:58.480Z,62.60
2022-09-20T16:18:44.155Z,62.70
2022-09-20T16:21:12.624Z,62.70
2022-09-20T16:23:40.841Z,62.70
2022-09-20T16:26:12.720Z,62.70
2022-09-20T16:28:45.196Z,62.70
2022-09-20T16:31:42.632Z,62.70
2022-09-20T16:34:21.302Z,62.60
2022-09-20T16:36:49.033Z,62.40
2022-09-20T16:39:17.443Z,62.80
2022-09-20T16:41:46.846Z,62.20
2022-09-20T16:44:14.195Z,62.10
2022-09-20T16:46:41.559Z,62.00
2022-09-20T16:49:11.593Z,61.90
2022-09-20T16:51:40.224Z,61.80
2022-09-20T16:54:12.698Z,61.70
2022-09-20T16:56:44.506Z,61.60
2022-09-20T16:59:12.787Z,61.70
2022-09-20T17:01:40.426Z,61.60
2022-09-20T17:04:08.347Z,61.70
2022-09-20T17:06:37.710Z,61.70
2022-09-20T17:09:06.413Z,61.70
2022-09-20T17:11:38.482Z,61.80
2022-09-20T17:14:05.707Z,61.90
2022-09-20T17:16:38.010Z,62.10
2022-09-20T17:19:11.200Z,62.20
2022-09-20T17:21:40.191Z,62.20
2022-09-20T17:24:07.520Z,62.40
2022-09-20T17:26:44.422Z,62.80
2022-09-20T17:29:17.351Z,62.60
2022-09-20T17:31:51.522Z,62.70
2022-09-20T17:34:21.531Z,62.80
2022-09-20T17:36:49.033Z,62.90
2022-09-20T17:39:16.498Z,62.90
2022-09-20T17:41:46.124Z,63.00
2022-09-20T17:44:13.469Z,63.00
2022-09-20T17:46:41.832Z,63.10
2022-09-20T17:49:14.006Z,63.30
2022-09-20T17:51:42.247Z,63.40
2022-09-20T17:54:13.525Z,63.30
2022-09-20T17:56:48.790Z,63.30
2022-09-20T17:59:16.819Z,63.40
2022-09-20T18:01:46.196Z,63.50
2022-09-20T18:04:13.498Z,63.50
2022-09-20T18:06:48.694Z,63.60
2022-09-20T18:09:19.703Z,63.70
2022-09-20T18:11:50.070Z,63.80
2022-09-20T18:14:28.347Z,63.80
2022-09-20T18:16:58.053Z,63.80
2022-09-20T18:19:32.213Z,63.90
2022-09-20T18:21:59.371Z,63.80
2022-09-20T18:24:26.543Z,63.90
2022-09-20T18:26:53.427Z,63.90
2022-09-20T18:29:20.321Z,63.90
2022-09-20T18:31:48.686Z,64.00
2022-09-20T18:34:20.338Z,63.90
2022-09-20T18:36:53.014Z,64.00
2022-09-20T18:39:25.003Z,64.00
2022-09-20T18:41:53.055Z,64.10
2022-09-20T18:44:21.194Z,64.20
2022-09-20T18:46:48.733Z,64.50
2022-09-20T18:49:16.898Z,64.10
2022-09-20T18:51:44.383Z,64.20
2022-09-20T18:54:12.060Z,64.40
2022-09-20T18:56:43.752Z,64.40
2022-09-20T18:59:18.220Z,64.20
2022-09-20T19:01:52.562Z,64.20
2022-09-20T19:04:40.899Z,64.20
2022-09-20T19:07:34.990Z,64.20
2022-09-20T19:10:06.643Z,64.20
2022-09-20T19:13:08.923Z,64.30
2022-09-20T19:16:10.093Z,64.30
2022-09-20T19:19:01.064Z,64.30
2022-09-20T19:21:50.465Z,64.20
2022-09-20T19:24:47.591Z,64.30
2022-09-20T19:27:14.987Z,64.30
2022-09-20T19:29:42.262Z,64.30
2022-09-20T19:32:21.646Z,64.30
2022-09-20T19:34:53.598Z,64.30
2022-09-20T19:37:20.575Z,64.30
2022-09-20T19:40:12.265Z,64.30
2022-09-20T19:43:03.199Z,64.30
2022-09-20T19:45:32.977Z,64.30
2022-09-20T19:48:18.130Z,64.40
2022-09-20T19:50:48.679Z,64.40
2022-09-20T19:53:22.239Z,64.50
2022-09-20T19:56:05.937Z,64.50
2022-09-20T19:58:32.988Z,64.50
2022-09-20T20:01:00.043Z,64.40
2022-09-20T20:03:28.646Z,64.30
2022-09-20T20:06:24.903Z,64.50
2022-09-20T20:09:28.506Z,64.50
2022-09-20T20:12:23.790Z,64.40
2022-09-20T20:14:58.892Z,64.40
2022-09-20T20:17:34.583Z,64.40
2022-09-20T20:20:26.387Z,64.40
2022-09-20T20:23:11.674Z,64.40
2022-09-20T20:26:02.982Z,64.50
2022-09-20T20:28:30.550Z,64.40
2022-09-20T20:31:02.185Z,64.40
2022-09-20T20:33:30.076Z,64.40
2022-09-20T20:35:58.793Z,64.40
2022-09-20T20:38:26.592Z,64.50
2022-09-20T20:41:04.720Z,64.40
2022-09-20T20:43:34.646Z,64.40
2022-09-20T20:46:01.748Z,64.40
2022-09-20T20:48:29.244Z,64.40
2022-09-20T20:51:22.241Z,64.40
2022-09-20T20:53:51.294Z,64.40
2022-09-20T20:56:25.666Z,64.40
2022-09-20T20:58:52.954Z,64.30
2022-09-20T21:01:25.310Z,64.40
2022-09-20T21:03:52.969Z,64.40
2022-09-20T21:06:21.378Z,64.40
2022-09-20T21:08:49.731Z,64.50
2022-09-20T21:11:24.966Z,64.40
2022-09-20T21:13:57.131Z,64.40
2022-09-20T21:16:29.594Z,64.50
2022-09-20T21:18:57.194Z,64.40
2022-09-20T21:21:30.049Z,64.40
2022-09-20T21:24:07.941Z,64.50
2022-09-20T21:26:37.282Z,64.40
2022-09-20T21:29:07.051Z,64.50
2022-09-20T21:31:36.544Z,64.50
2022-09-20T21:34:07.899Z,64.50
2022-09-20T21:36:35.895Z,64.50
2022-09-20T21:39:03.440Z,64.50
2022-09-20T21:41:32.513Z,64.40
2022-09-20T21:44:00.921Z,64.50
2022-09-20T21:46:29.776Z,64.50
2022-09-20T21:49:03.956Z,64.50
2022-09-20T21:51:31.809Z,64.50
2022-09-20T21:54:01.352Z,64.50
2022-09-20T21:56:36.714Z,64.50
2022-09-20T21:59:06.021Z,64.50
2022-09-20T22:01:35.505Z,64.50
2022-09-20T22:04:08.063Z,64.60
2022-09-20T22:06:37.415Z,64.50
2022-09-20T22:09:07.594Z,64.50
2022-09-20T22:11:40.178Z,64.50
2022-09-20T22:14:08.107Z,64.50
2022-09-20T22:16:37.865Z,64.50
2022-09-20T22:19:05.769Z,64.50
2022-09-20T22:21:35.321Z,64.50
2022-09-20T22:24:04.738Z,64.50
2022-09-20T22:26:34.788Z,64.50
2022-09-20T22:29:02.435Z,64.50
2022-09-20T22:31:31.665Z,65.00
2022-09-20T22:34:00.551Z,64.50
2022-09-20T22:36:30.344Z,64.50
2022-09-20T22:38:57.302Z,64.50
2022-09-20T22:41:24.590Z,64.50
2022-09-20T22:43:51.929Z,64.50
2022-09-20T22:46:21.077Z,64.50
2022-09-20T22:48:48.486Z,64.50
2022-09-20T22:51:16.906Z,64.50
2022-09-20T22:53:44.700Z,64.60
2022-09-20T22:56:15.971Z,64.50
2022-09-20T22:58:48.569Z,64.50
2022-09-20T23:01:15.283Z,64.50
2022-09-20T23:03:44.836Z,64.50
2022-09-20T23:06:22.087Z,64.50
2022-09-20T23:08:49.955Z,64.60
2022-09-20T23:11:17.436Z,64.50
2022-09-20T23:13:45.419Z,64.50
2022-09-20T23:16:21.248Z,64.50
2022-09-20T23:18:49.350Z,64.50
2022-09-20T23:21:17.122Z,64.50
2022-09-20T23:23:45.179Z,64.60
2022-09-20T23:26:17.911Z,64.50
2022-09-20T23:28:51.767Z,64.60
2022-09-20T23:31:18.875Z,64.50
2022-09-20T23:33:56.626Z,64.60
2022-09-20T23:36:24.643Z,64.50
2022-09-20T23:38:51.789Z,64.50
2022-09-20T23:41:21.099Z,64.60
2022-09-20T23:43:48.324Z,64.50
2022-09-20T23:46:17.261Z,64.60
2022-09-20T23:48:44.720Z,64.50
2022-09-20T23:51:13.606Z,64.50
2022-09-20T23:53:40.968Z,64.60
2022-09-20T23:56:09.155Z,64.50
2022-09-20T23:58:37.278Z,64.50
